createdAt,value
2022-08-08T00:00:55.704Z,1.02
2022-08-08T00:02:57.659Z,1.20
2022-08-08T00:05:43.866Z,1.20
2022-08-08T00:08:27.104Z,0.77
2022-08-08T00:11:00.827Z,1.00
2022-08-08T00:14:16.880Z,0.80
2022-08-08T00:16:41.362Z,1.30
2022-08-08T00:19:17.370Z,0.80
2022-08-08T00:21:52.430Z,0.90
2022-08-08T00:24:29.911Z,0.60
2022-08-08T00:27:05.970Z,1.00
2022-08-08T00:29:44.196Z,0.90
2022-08-08T00:32:34.154Z,0.70
2022-08-08T00:35:21.313Z,1.10
2022-08-08T00:38:32.040Z,0.90
2022-08-08T00:42:08.812Z,0.63
2022-08-08T00:48:30.553Z,0.60
2022-08-08T00:51:38.158Z,0.70
2022-08-08T00:54:51.837Z,0.98
2022-08-08T00:58:12.726Z,0.60
2022-08-08T01:00:53.220Z,0.70
2022-08-08T01:04:11.740Z,0.68
2022-08-08T01:07:05.732Z,0.60
2022-08-08T01:10:24.814Z,0.60
2022-08-08T01:13:43.934Z,0.70
2022-08-08T01:17:03.494Z,0.63
2022-08-08T01:20:16.810Z,0.80
2022-08-08T01:24:06.129Z,0.63
2022-08-08T01:27:10.852Z,0.60
2022-08-08T01:30:03.878Z,0.75
2022-08-08T01:33:33.659Z,0.75
2022-08-08T01:39:23.922Z,1.08
2022-08-08T01:42:02.596Z,0.80
2022-08-08T01:44:58.984Z,0.90
2022-08-08T01:48:11.541Z,0.80
2022-08-08T01:50:58.955Z,0.90
2022-08-08T01:54:12.638Z,0.73
2022-08-08T01:56:47.449Z,0.80
2022-08-08T02:00:01.865Z,0.93
2022-08-08T02:02:42.657Z,0.93
2022-08-08T02:05:33.821Z,0.90
2022-08-08T02:08:34.046Z,0.70
2022-08-08T02:11:23.135Z,0.73
2022-08-08T02:13:59.652Z,0.88
2022-08-08T02:16:45.671Z,0.80
2022-08-08T02:19:41.713Z,0.80
2022-08-08T02:22:31.585Z,0.90
2022-08-08T02:25:11.810Z,0.75
2022-08-08T02:27:50.972Z,0.98
2022-08-08T02:30:27.097Z,1.00
2022-08-08T02:33:16.811Z,0.68
2022-08-08T02:36:05.677Z,1.08
2022-08-08T02:39:01.393Z,1.10
2022-08-08T02:42:11.782Z,0.95
2022-08-08T02:45:23.814Z,0.80
2022-08-08T02:48:28.342Z,0.90
2022-08-08T02:51:55.661Z,0.95
2022-08-08T02:54:53.443Z,0.88
2022-08-08T02:57:57.431Z,0.93
2022-08-08T03:00:47.228Z,1.33
2022-08-08T03:05:03.806Z,1.10
2022-08-08T03:07:41.871Z,1.00
2022-08-08T03:10:55.957Z,1.30
2022-08-08T03:15:57.495Z,1.00
2022-08-08T03:16:51.682Z,0.88
2022-08-08T03:19:51.355Z,0.80
2022-08-08T03:22:38.287Z,0.73
2022-08-08T03:25:18.087Z,0.88
2022-08-08T03:27:58.162Z,0.70
2022-08-08T03:30:29.357Z,0.68
2022-08-08T03:33:58.138Z,1.10
2022-08-08T03:36:10.402Z,1.15
2022-08-08T03:38:56.431Z,0.80
2022-08-08T03:42:12.593Z,1.20
2022-08-08T03:44:34.158Z,0.95
2022-08-08T03:47:07.113Z,1.10
2022-08-08T03:49:59.829Z,1.30
2022-08-08T03:52:35.180Z,0.73
2022-08-08T03:55:19.979Z,0.80
2022-08-08T03:58:31.986Z,1.15
2022-08-08T04:01:01.762Z,0.80
2022-08-08T04:03:59.154Z,1.13
2022-08-08T04:06:30.121Z,0.70
2022-08-08T04:09:10.867Z,1.00
2022-08-08T04:11:58.015Z,1.15
2022-08-08T04:14:45.171Z,1.10
2022-08-08T04:17:22.454Z,1.55
2022-08-08T04:20:04.881Z,1.10
2022-08-08T04:22:34.158Z,1.10
2022-08-08T04:25:04.471Z,1.25
2022-08-08T04:28:03.611Z,1.40
2022-08-08T04:30:23.054Z,1.38
2022-08-08T04:32:54.259Z,0.80
2022-08-08T04:35:29.444Z,1.20
2022-08-08T04:38:01.177Z,0.98
2022-08-08T04:40:34.619Z,0.90
2022-08-08T04:43:05.548Z,0.90
2022-08-08T04:45:42.665Z,0.95
2022-08-08T04:48:11.503Z,1.05
2022-08-08T04:50:46.138Z,0.90
2022-08-08T04:54:27.444Z,1.13
2022-08-08T04:56:08.613Z,0.90
2022-08-08T04:58:38.173Z,1.00
2022-08-08T05:01:11.340Z,1.00
2022-08-08T05:04:09.746Z,1.15
2022-08-08T05:06:39.413Z,0.82
2022-08-08T05:09:09.171Z,0.90
2022-08-08T05:11:41.070Z,1.15
2022-08-08T05:14:14.177Z,1.05
2022-08-08T05:17:00.606Z,0.90
2022-08-08T05:20:10.147Z,0.82
2022-08-08T05:22:27.768Z,1.23
2022-08-08T05:24:58.091Z,0.90
2022-08-08T05:27:26.404Z,1.00
2022-08-08T05:29:56.538Z,1.15
2022-08-08T05:32:34.347Z,0.80
2022-08-08T05:35:05.739Z,0.93
2022-08-08T05:37:52.913Z,1.10
2022-08-08T05:40:46.489Z,1.45
2022-08-08T05:43:39.637Z,0.95
2022-08-08T05:46:11.850Z,1.15
2022-08-08T05:48:43.480Z,1.10
2022-08-08T05:51:18.799Z,1.60
2022-08-08T05:54:25.443Z,0.90
2022-08-08T05:56:47.292Z,1.20
2022-08-08T05:59:59.509Z,1.00
2022-08-08T06:02:48.155Z,0.98
2022-08-08T06:05:35.144Z,1.20
2022-08-08T06:08:28.787Z,1.17
2022-08-08T06:11:02.052Z,1.25
2022-08-08T06:13:36.215Z,1.25
2022-08-08T06:16:16.154Z,1.80
2022-08-08T06:19:12.199Z,1.20
2022-08-08T06:21:57.056Z,1.00
2022-08-08T06:24:36.951Z,0.90
2022-08-08T06:27:10.689Z,1.45
2022-08-08T06:30:02.172Z,1.58
2022-08-08T06:32:47.495Z,1.50
2022-08-08T06:36:05.963Z,1.35
2022-08-08T06:38:14.726Z,1.10
2022-08-08T06:40:54.217Z,1.52
2022-08-08T06:43:33.871Z,1.00
2022-08-08T06:46:08.712Z,1.38
2022-08-08T06:48:38.471Z,1.23
2022-08-08T06:51:08.667Z,1.10
2022-08-08T06:53:50.698Z,1.45
2022-08-08T06:56:31.117Z,1.42
2022-08-08T06:58:59.815Z,1.75
2022-08-08T07:02:27.719Z,1.38
2022-08-08T07:04:41.592Z,1.50
2022-08-08T07:07:20.958Z,1.58
2022-08-08T07:10:08.351Z,1.80
2022-08-08T07:12:43.414Z,0.93
2022-08-08T07:15:32.331Z,1.00
2022-08-08T07:18:37.180Z,1.40
2022-08-08T07:21:05.678Z,1.63
2022-08-08T07:24:01.793Z,1.38
2022-08-08T07:26:41.217Z,1.30
2022-08-08T07:30:00.440Z,1.50
2022-08-08T07:32:00.019Z,1.48
2022-08-08T07:34:32.422Z,1.08
2022-08-08T07:37:11.800Z,1.27
2022-08-08T07:39:55.866Z,1.15
2022-08-08T07:42:33.378Z,1.00
2022-08-08T07:45:05.858Z,1.50
2022-08-08T07:47:39.392Z,1.50
2022-08-08T07:50:11.092Z,1.10
2022-08-08T07:52:44.157Z,0.80
2022-08-08T07:55:20.412Z,2.22
2022-08-08T07:58:01.126Z,1.00
2022-08-08T08:00:38.841Z,1.23
2022-08-08T08:03:23.491Z,0.77
2022-08-08T08:05:56.686Z,0.88
2022-08-08T08:08:39.181Z,1.63
2022-08-08T08:11:20.025Z,0.90
2022-08-08T08:14:07.471Z,1.02
2022-08-08T08:16:48.591Z,0.63
2022-08-08T08:19:21.245Z,0.85
2022-08-08T08:21:58.059Z,0.75
2022-08-08T08:24:35.374Z,0.70
2022-08-08T08:27:09.381Z,0.68
2022-08-08T08:29:42.427Z,0.60
2022-08-08T08:32:14.167Z,1.02
2022-08-08T08:35:00.497Z,0.70
2022-08-08T08:37:32.164Z,1.20
2022-08-08T08:40:03.053Z,0.90
2022-08-08T08:42:38.433Z,1.00
2022-08-08T08:45:21.220Z,0.80
2022-08-08T08:47:54.564Z,0.50
2022-08-08T08:50:33.361Z,0.73
2022-08-08T08:53:54.743Z,0.82
2022-08-08T08:56:03.780Z,0.80
2022-08-08T08:58:42.169Z,1.13
2022-08-08T09:01:18.483Z,0.80
2022-08-08T09:03:51.467Z,0.82
2022-08-08T09:06:33.762Z,0.60
2022-08-08T09:09:25.898Z,0.93
2022-08-08T09:12:08.614Z,1.13
2022-08-08T09:14:45.138Z,0.98
2022-08-08T09:17:31.871Z,0.70
2022-08-08T09:22:00.537Z,0.77
2022-08-08T09:22:59.949Z,1.13
2022-08-08T09:25:47.641Z,0.90
2022-08-08T09:28:23.893Z,0.90
2022-08-08T09:31:13.256Z,0.80
2022-08-08T09:34:30.045Z,0.90
2022-08-08T09:37:23.696Z,0.65
2022-08-08T09:39:36.745Z,0.60
2022-08-08T09:42:20.840Z,0.70
2022-08-08T09:45:15.749Z,0.70
2022-08-08T09:48:09.741Z,1.05
2022-08-08T09:50:44.068Z,0.77
2022-08-08T09:53:24.772Z,0.90
2022-08-08T09:56:14.410Z,0.80
2022-08-08T09:58:57.822Z,0.82
2022-08-08T10:01:59.711Z,0.85
2022-08-08T10:04:35.632Z,0.63
2022-08-08T10:07:07.886Z,0.90
2022-08-08T10:09:59.146Z,1.17
2022-08-08T10:12:37.463Z,0.60
2022-08-08T10:15:17.391Z,0.68
2022-08-08T10:18:06.251Z,1.30
2022-08-08T10:20:51.435Z,0.63
2022-08-08T10:23:44.193Z,0.73
2022-08-08T10:26:29.908Z,1.00
2022-08-08T10:29:04.776Z,0.90
2022-08-08T10:31:51.787Z,0.80
2022-08-08T10:34:21.561Z,1.00
2022-08-08T10:36:51.276Z,0.77
2022-08-08T10:39:31.607Z,0.50
2022-08-08T10:42:16.341Z,0.80
2022-08-08T10:47:16.426Z,0.60
2022-08-08T10:50:02.258Z,0.70
2022-08-08T10:52:33.508Z,0.80
2022-08-08T10:55:06.976Z,0.63
2022-08-08T10:57:45.291Z,0.40
2022-08-08T11:00:23.189Z,0.70
2022-08-08T11:02:54.722Z,0.60
2022-08-08T11:05:23.432Z,0.60
2022-08-08T11:08:36.841Z,0.43
2022-08-08T11:10:44.009Z,0.50
2022-08-08T11:13:28.605Z,0.65
2022-08-08T11:16:00.857Z,0.68
2022-08-08T11:18:30.796Z,0.80
2022-08-08T11:21:08.813Z,0.43
2022-08-08T11:23:43.230Z,0.60
2022-08-08T11:28:50.298Z,0.47
2022-08-08T11:31:21.004Z,0.45
2022-08-08T11:34:01.707Z,0.63
2022-08-08T11:36:33.199Z,0.80
2022-08-08T11:39:06.062Z,0.80
2022-08-08T11:41:45.136Z,1.45
2022-08-08T11:44:15.853Z,1.00
2022-08-08T11:46:45.060Z,0.60
2022-08-08T11:49:20.838Z,0.73
2022-08-08T11:51:52.440Z,1.02
2022-08-08T11:54:34.151Z,0.68
2022-08-08T11:57:14.664Z,0.50
2022-08-08T12:00:02.088Z,0.70
2022-08-08T12:02:48.362Z,0.77
2022-08-08T12:05:22.557Z,0.50
2022-08-08T12:07:52.663Z,0.32
2022-08-08T12:10:23.198Z,0.60
2022-08-08T12:13:02.503Z,0.50
2022-08-08T12:15:42.879Z,0.68
2022-08-08T12:20:54.252Z,0.55
2022-08-08T12:23:42.956Z,0.70
2022-08-08T12:26:28.327Z,0.65
2022-08-08T12:29:21.290Z,0.43
2022-08-08T12:32:02.753Z,0.43
2022-08-08T12:34:39.328Z,0.52
2022-08-08T12:37:11.324Z,0.30
2022-08-08T12:40:01.451Z,0.20
2022-08-08T12:42:33.202Z,0.40
2022-08-08T12:45:58.448Z,0.50
2022-08-08T12:48:10.521Z,0.68
2022-08-08T12:50:51.909Z,0.60
2022-08-08T12:53:30.239Z,0.60
2022-08-08T12:56:19.430Z,0.85
2022-08-08T12:58:54.018Z,0.73
2022-08-08T13:01:36.954Z,0.68
2022-08-08T13:04:18.479Z,0.70
2022-08-08T13:07:00.835Z,0.47
2022-08-08T13:10:00.587Z,0.70
2022-08-08T13:12:32.495Z,0.55
2022-08-08T13:15:03.812Z,0.70
2022-08-08T13:18:09.045Z,0.30
2022-08-08T13:20:27.207Z,0.60
2022-08-08T13:23:41.310Z,0.30
2022-08-08T13:25:51.068Z,0.60
2022-08-08T13:28:31.830Z,0.85
2022-08-08T13:31:01.579Z,0.50
2022-08-08T13:33:41.621Z,0.65
2022-08-08T13:36:11.864Z,0.68
2022-08-08T13:38:40.177Z,0.30
2022-08-08T13:41:16.664Z,0.52
2022-08-08T13:43:47.037Z,0.63
2022-08-08T13:46:26.336Z,0.80
2022-08-08T13:49:11.410Z,1.10
2022-08-08T13:51:55.343Z,0.70
2022-08-08T13:54:31.400Z,0.60
2022-08-08T13:57:01.562Z,0.80
2022-08-08T13:59:32.889Z,0.68
2022-08-08T14:02:07.313Z,0.80
2022-08-08T14:04:53.286Z,0.60
2022-08-08T14:07:24.017Z,1.00
2022-08-08T14:10:04.683Z,0.70
2022-08-08T14:12:35.935Z,1.15
2022-08-08T14:15:05.060Z,0.80
2022-08-08T14:17:57.446Z,0.90
2022-08-08T14:20:55.988Z,0.30
2022-08-08T14:24:03.930Z,0.55
2022-08-08T14:26:10.788Z,0.75
2022-08-08T14:28:39.698Z,0.90
2022-08-08T14:31:11.434Z,0.80
2022-08-08T14:33:52.624Z,1.20
2022-08-08T14:36:34.658Z,0.70
2022-08-08T14:39:11.639Z,0.82
2022-08-08T14:41:45.269Z,1.10
2022-08-08T14:44:35.055Z,1.13
2022-08-08T14:47:17.222Z,0.80
2022-08-08T14:50:05.909Z,0.70
2022-08-08T14:52:54.132Z,0.60
2022-08-08T14:55:35.590Z,0.70
2022-08-08T14:58:12.184Z,0.70
2022-08-08T15:00:46.474Z,0.77
2022-08-08T15:03:17.257Z,1.20
2022-08-08T15:05:53.957Z,0.93
2022-08-08T15:08:34.986Z,1.10
2022-08-08T15:11:11.287Z,0.65
2022-08-08T15:14:01.762Z,0.68
2022-08-08T15:16:29.769Z,0.80
2022-08-08T15:19:03.346Z,0.70
2022-08-08T15:21:31.549Z,0.85
2022-08-08T15:24:01.205Z,1.30
2022-08-08T15:26:31.262Z,1.13
2022-08-08T15:28:59.264Z,1.08
2022-08-08T15:32:18.926Z,1.40
2022-08-08T15:34:18.777Z,1.40
2022-08-08T15:37:02.085Z,1.63
2022-08-08T15:39:38.146Z,1.10
2022-08-08T15:42:18.027Z,0.95
2022-08-08T15:45:00.265Z,0.57
2022-08-08T15:47:28.374Z,1.17
2022-08-08T15:49:59.277Z,0.80
2022-08-08T15:52:27.119Z,0.88
2022-08-08T15:54:56.484Z,1.10
2022-08-08T15:57:24.381Z,1.40
2022-08-08T16:00:26.331Z,1.50
2022-08-08T16:02:44.197Z,1.27
2022-08-08T16:05:19.268Z,1.13
2022-08-08T16:07:52.599Z,0.90
2022-08-08T16:13:12.068Z,0.63
2022-08-08T16:13:27.272Z,0.88
2022-08-08T16:16:16.437Z,1.17
2022-08-08T16:18:56.453Z,0.85
2022-08-08T16:21:28.054Z,0.40
2022-08-08T16:23:57.451Z,0.60
2022-08-08T16:26:34.516Z,1.02
2022-08-08T16:29:08.098Z,0.70
2022-08-08T16:31:40.374Z,0.53
2022-08-08T16:34:08.916Z,0.75
2022-08-08T16:36:37.461Z,0.43
2022-08-08T16:39:09.611Z,0.80
2022-08-08T16:41:51.107Z,0.38
2022-08-08T16:44:27.593Z,0.57
2022-08-08T16:47:17.279Z,0.60
2022-08-08T16:49:47.840Z,0.70
2022-08-08T16:55:01.410Z,0.60
2022-08-08T16:55:42.820Z,0.55
2022-08-08T16:58:15.359Z,0.65
2022-08-08T17:00:49.082Z,0.70
2022-08-08T17:03:25.416Z,0.82
2022-08-08T17:06:37.702Z,0.70
2022-08-08T17:08:56.755Z,0.55
2022-08-08T17:11:28.226Z,0.75
2022-08-08T17:14:17.721Z,0.88
2022-08-08T17:16:57.587Z,0.93
2022-08-08T17:19:27.363Z,0.70
2022-08-08T17:21:56.991Z,0.88
2022-08-08T17:24:27.920Z,0.70
2022-08-08T17:26:58.845Z,0.88
2022-08-08T17:29:33.755Z,0.50
2022-08-08T17:32:04.360Z,0.45
2022-08-08T17:34:52.897Z,0.40
2022-08-08T17:37:22.511Z,0.52
2022-08-08T17:40:12.459Z,0.55
2022-08-08T17:42:41.365Z,0.93
2022-08-08T17:45:23.548Z,0.85
2022-08-08T17:47:54.196Z,0.47
2022-08-08T17:50:23.522Z,0.60
2022-08-08T17:52:51.867Z,0.63
2022-08-08T17:56:04.661Z,0.90
2022-08-08T17:58:09.389Z,0.60
2022-08-08T18:00:41.335Z,1.00
2022-08-08T18:03:13.862Z,1.08
2022-08-08T18:05:43.963Z,1.10
2022-08-08T18:08:24.783Z,0.85
2022-08-08T18:11:07.301Z,0.80
2022-08-08T18:13:41.651Z,0.75
2022-08-08T18:16:12.798Z,0.82
2022-08-08T18:18:52.494Z,0.65
2022-08-08T18:21:35.551Z,0.80
2022-08-08T18:24:19.541Z,1.15
2022-08-08T18:26:55.058Z,0.70
2022-08-08T18:29:30.210Z,0.63
2022-08-08T18:32:05.251Z,0.50
2022-08-08T18:34:35.680Z,1.10
2022-08-08T18:37:08.597Z,0.73
2022-08-08T18:42:13.724Z,0.65
2022-08-08T18:44:55.231Z,0.98
2022-08-08T18:47:25.981Z,0.43
2022-08-08T18:49:58.669Z,0.57
2022-08-08T18:52:30.051Z,0.85
2022-08-08T18:54:59.376Z,0.60
2022-08-08T18:57:31.741Z,0.50
2022-08-08T19:00:10.703Z,0.60
2022-08-08T19:02:48.363Z,0.55
2022-08-08T19:05:31.860Z,0.40
2022-08-08T19:08:24.688Z,0.82
2022-08-08T19:10:58.639Z,0.70
2022-08-08T19:13:52.772Z,0.45
2022-08-08T19:16:18.432Z,0.30
2022-08-08T19:18:59.952Z,0.45
2022-08-08T19:21:33.801Z,0.50
2022-08-08T19:24:18.499Z,0.40
2022-08-08T19:27:07.075Z,0.30
2022-08-08T19:29:42.449Z,0.43
2022-08-08T19:32:19.503Z,0.93
2022-08-08T19:34:52.050Z,0.57
2022-08-08T19:37:41.798Z,0.40
2022-08-08T19:40:14.624Z,0.30
2022-08-08T19:42:44.318Z,0.40
2022-08-08T19:45:13.960Z,0.60
2022-08-08T19:47:42.224Z,0.68
2022-08-08T19:50:15.058Z,0.25
2022-08-08T19:52:59.085Z,0.40
2022-08-08T19:55:27.788Z,0.40
2022-08-08T19:58:02.503Z,0.30
2022-08-08T20:00:34.434Z,0.20
2022-08-08T20:03:14.565Z,0.30
2022-08-08T20:06:15.522Z,0.32
2022-08-08T20:08:33.131Z,0.50
2022-08-08T20:11:01.204Z,0.35
2022-08-08T20:14:32.643Z,0.30
2022-08-08T20:16:18.750Z,0.10
2022-08-08T20:18:53.202Z,0.35
2022-08-08T20:21:25.255Z,0.22
2022-08-08T20:23:58.176Z,0.30
2022-08-08T20:26:29.976Z,1.10
2022-08-08T20:29:00.254Z,0.10
2022-08-08T20:32:02.829Z,0.38
2022-08-08T20:34:31.273Z,0.40
2022-08-08T20:37:03.246Z,0.45
2022-08-08T20:39:39.338Z,0.30
2022-08-08T20:42:28.812Z,0.20
2022-08-08T20:44:58.318Z,0.60
2022-08-08T20:47:26.844Z,0.40
2022-08-08T20:50:05.123Z,0.45
2022-08-08T20:52:35.062Z,0.25
2022-08-08T20:55:16.287Z,0.50
2022-08-08T20:57:51.331Z,0.40
2022-08-08T21:00:19.560Z,0.30
2022-08-08T21:02:52.498Z,0.50
2022-08-08T21:05:21.564Z,0.20
2022-08-08T21:08:37.166Z,0.30
2022-08-08T21:10:43.276Z,0.50
2022-08-08T21:13:11.242Z,0.50
2022-08-08T21:16:04.677Z,0.45
2022-08-08T21:18:28.017Z,0.32
2022-08-08T21:20:56.760Z,0.40
2022-08-08T21:23:59.033Z,0.50
2022-08-08T21:26:26.812Z,0.32
2022-08-08T21:28:56.055Z,0.30
2022-08-08T21:31:53.481Z,0.50
2022-08-08T21:34:18.659Z,0.57
2022-08-08T21:36:48.560Z,0.40
2022-08-08T21:39:19.087Z,0.50
2022-08-08T21:41:54.063Z,0.20
2022-08-08T21:44:27.136Z,0.30
2022-08-08T21:48:08.837Z,0.60
2022-08-08T21:49:43.065Z,0.50
2022-08-08T21:54:27.409Z,0.80
2022-08-08T21:55:04.214Z,0.60
2022-08-08T21:58:04.215Z,0.50
2022-08-08T22:00:37.321Z,0.57
2022-08-08T22:03:11.103Z,0.57
2022-08-08T22:05:48.503Z,0.38
2022-08-08T22:08:16.779Z,0.38
2022-08-08T22:10:54.191Z,0.30
2022-08-08T22:13:22.879Z,0.50
2022-08-08T22:15:58.313Z,0.40
2022-08-08T22:18:29.009Z,0.50
2022-08-08T22:20:59.502Z,0.30
2022-08-08T22:23:32.719Z,0.40
2022-08-08T22:26:26.834Z,0.50
2022-08-08T22:29:14.680Z,0.30
2022-08-08T22:31:40.568Z,0.25
2022-08-08T22:34:15.257Z,0.43
2022-08-08T22:36:43.483Z,0.30
2022-08-08T22:39:18.981Z,0.32
2022-08-08T22:41:49.589Z,0.60
2022-08-08T22:44:18.083Z,0.40
2022-08-08T22:46:46.027Z,0.40
2022-08-08T22:49:20.033Z,0.60
2022-08-08T22:51:48.287Z,0.50
2022-08-08T22:54:34.036Z,0.30
2022-08-08T22:57:11.482Z,0.25
2022-08-08T22:59:52.915Z,0.22
2022-08-08T23:02:28.835Z,0.20
2022-08-08T23:04:57.790Z,0.40
2022-08-08T23:07:51.541Z,0.30
2022-08-08T23:10:19.483Z,0.45
2022-08-08T23:12:51.757Z,0.40
2022-08-08T23:16:40.541Z,0.40
2022-08-08T23:18:11.832Z,0.52
2022-08-08T23:20:41.217Z,0.20
2022-08-08T23:23:12.163Z,0.40
2022-08-08T23:25:47.805Z,0.60
2022-08-08T23:28:19.208Z,0.20
2022-08-08T23:30:47.848Z,0.20
2022-08-08T23:33:20.860Z,0.30
2022-08-08T23:36:08.338Z,0.28
2022-08-08T23:38:44.351Z,0.50
2022-08-08T23:41:24.487Z,0.60
2022-08-08T23:43:56.866Z,0.47
2022-08-08T23:49:02.870Z,0.30
2022-08-08T23:49:14.540Z,0.32
2022-08-08T23:52:04.709Z,0.30
2022-08-08T23:54:41.285Z,0.32
2022-08-08T23:57:25.448Z,0.30
